Time;durP1;ratioP1;P1;durP2;ratioP2;P2;SDS_P1;SDS_P2;PMS_P1;PMS_P2;Temp;Humidity;BMP_temperature;BMP_pressure;BME280_temperature;BME280_humidity;BME280_pressure;Samples;Min_cycle;Max_cycle;Signal;HPM_P1;HPM_P2
2022/12/19 00:01:26;;;;;;;10.35;6.43;;;18.30;95.30;;;;;;4898510;29;20198;-72
2022/12/19 00:03:55;;;;;;;11.45;6.13;;;18.30;95.40;;;;;;4898769;29;20253;-72
2022/12/19 00:06:22;;;;;;;8.27;6.07;;;18.30;95.20;;;;;;4898048;29;20254;-72
2022/12/19 00:08:51;;;;;;;10.43;6.82;;;18.30;94.90;;;;;;4898411;29;20205;-72
2022/12/19 00:11:21;;;;;;;19.38;6.20;;;18.40;95.00;;;;;;4898351;29;20728;-72
2022/12/19 00:13:48;;;;;;;11.07;6.20;;;18.50;95.10;;;;;;4898678;29;20213;-73
2022/12/19 00:16:17;;;;;;;16.30;6.85;;;18.50;95.60;;;;;;4898587;29;20233;-73
2022/12/19 00:18:45;;;;;;;7.60;6.05;;;18.50;95.30;;;;;;4898657;29;20205;-73
2022/12/19 00:21:17;;;;;;;12.40;6.60;;;18.50;95.50;;;;;;4898600;29;20198;-73
2022/12/19 00:23:44;;;;;;;7.07;6.15;;;18.50;95.60;;;;;;4898651;29;20201;-73
2022/12/19 00:26:13;;;;;;;7.40;5.53;;;18.50;95.70;;;;;;4898527;29;20232;-72
2022/12/19 00:28:42;;;;;;;11.10;6.90;;;18.50;95.70;;;;;;4898597;29;20202;-72
2022/12/19 00:31:09;;;;;;;6.82;6.13;;;18.40;95.70;;;;;;4898422;29;20225;-72
2022/12/19 00:33:36;;;;;;;10.73;6.88;;;18.40;95.80;;;;;;4898519;29;20216;-72
2022/12/19 00:36:05;;;;;;;8.15;5.97;;;18.40;95.80;;;;;;4920981;23;20229;-73
2022/12/19 00:38:32;;;;;;;8.77;6.22;;;18.40;96.10;;;;;;4898757;29;20562;-73
2022/12/19 00:41:07;;;;;;;11.38;6.10;;;18.40;96.30;;;;;;4898258;29;20689;-73
2022/12/19 00:43:33;;;;;;;16.48;7.50;;;18.40;96.70;;;;;;4898551;29;20185;-73
2022/12/19 00:46:03;;;;;;;9.77;6.43;;;18.40;97.10;;;;;;4898098;29;20232;-73
2022/12/19 00:48:31;;;;;;;8.80;5.68;;;18.40;97.30;;;;;;4898444;29;20190;-73
2022/12/19 00:51:01;;;;;;;10.60;6.05;;;18.40;97.70;;;;;;4898296;29;20221;-73
2022/12/19 00:53:28;;;;;;;10.90;5.93;;;18.40;98.30;;;;;;4898339;29;20206;-73
2022/12/19 00:55:55;;;;;;;10.80;6.35;;;17.70;99.90;;;;;;4898493;29;20238;-73
2022/12/19 00:58:22;;;;;;;13.55;6.30;;;18.40;99.90;;;;;;4898321;29;20209;-73
2022/12/19 01:00:49;;;;;;;10.95;6.38;;;18.40;99.90;;;;;;4898275;29;20216;-73
2022/12/19 01:03:17;;;;;;;10.35;6.35;;;18.40;99.90;;;;;;4898529;29;20212;-73
2022/12/19 01:05:44;;;;;;;11.13;6.53;;;18.30;99.90;;;;;;4898401;29;20237;-72
2022/12/19 01:08:11;;;;;;;11.85;6.18;;;;;;;;;;4898250;29;20217;-72
2022/12/19 01:10:44;;;;;;;9.15;6.10;;;18.30;99.90;;;;;;4898127;29;20205;-72
2022/12/19 01:13:10;;;;;;;8.65;6.82;;;18.30;99.90;;;;;;4898771;29;20194;-72
2022/12/19 01:15:39;;;;;;;9.10;7.03;;;18.30;99.90;;;;;;4898093;29;20697;-72
2022/12/19 01:18:08;;;;;;;6.78;6.05;;;18.30;99.90;;;;;;4898719;29;20213;-72
2022/12/19 01:20:38;;;;;;;9.65;5.97;;;18.20;99.90;;;;;;4901646;29;20232;-72
2022/12/19 01:23:05;;;;;;;7.40;6.00;;;18.20;99.90;;;;;;4901637;29;20618;-72
2022/12/19 01:25:33;;;;;;;9.15;5.85;;;18.20;99.90;;;;;;4901612;29;20240;-72
2022/12/19 01:28:00;;;;;;;7.40;6.30;;;18.30;99.60;;;;;;4901296;29;20696;-72
2022/12/19 01:30:28;;;;;;;11.27;5.50;;;18.30;99.60;;;;;;4901617;29;20213;-72
2022/12/19 01:32:55;;;;;;;8.52;6.47;;;18.40;99.80;;;;;;4901487;29;20224;-72
2022/12/19 01:35:22;;;;;;;9.93;6.35;;;18.40;99.90;;;;;;4901253;29;20238;-72
2022/12/19 01:37:51;;;;;;;10.93;6.55;;;18.40;99.90;;;;;;4901358;29;20212;-72
2022/12/19 01:40:18;;;;;;;7.97;5.90;;;18.50;99.90;;;;;;4901311;29;20206;-72
2022/12/19 01:42:45;;;;;;;8.23;5.70;;;18.50;99.90;;;;;;4900961;29;20610;-72
2022/12/19 01:45:24;;;;;;;6.82;6.18;;;18.50;99.90;;;;;;4900799;29;20630;-72
2022/12/19 01:47:54;;;;;;;7.80;6.07;;;18.40;99.90;;;;;;4901497;29;20205;-72
2022/12/19 01:50:27;;;;;;;6.35;5.75;;;18.40;98.80;;;;;;4901173;29;20534;-72
2022/12/19 01:52:55;;;;;;;7.55;5.75;;;18.40;99.00;;;;;;4901077;29;20210;-72
2022/12/19 01:55:22;;;;;;;6.88;5.82;;;18.40;98.80;;;;;;4900664;29;20597;-72
2022/12/19 01:57:49;;;;;;;7.25;5.95;;;18.40;98.80;;;;;;4900731;29;20201;-72
2022/12/19 02:00:16;;;;;;;8.00;5.57;;;18.40;98.70;;;;;;4900957;29;20209;-72
2022/12/19 02:02:48;;;;;;;7.50;6.28;;;18.30;98.80;;;;;;4900900;29;20213;-72
2022/12/19 02:05:15;;;;;;;9.73;6.22;;;18.40;99.00;;;;;;4900835;29;20252;-72
2022/12/19 02:07:44;;;;;;;9.07;6.22;;;18.30;99.30;;;;;;4900858;29;20209;-72
2022/12/19 02:10:12;;;;;;;11.35;6.47;;;18.40;99.30;;;;;;4900824;29;20578;-72
2022/12/19 02:12:41;;;;;;;14.75;6.55;;;18.40;99.30;;;;;;4900687;29;20217;-72
2022/12/19 02:15:10;;;;;;;9.88;5.90;;;18.30;99.50;;;;;;4900651;29;20226;-72
2022/12/19 02:17:45;;;;;;;9.02;6.30;;;18.30;99.50;;;;;;4900648;29;20202;-72
2022/12/19 02:20:29;;;;;;;9.23;5.97;;;18.30;99.40;;;;;;4900669;29;20201;-72
2022/12/19 02:23:16;;;;;;;7.35;6.43;;;18.30;99.30;;;;;;4900608;29;20267;-72
2022/12/19 02:26:03;;;;;;;9.60;5.88;;;18.30;99.30;;;;;;4900505;29;20232;-72
2022/12/19 02:28:50;;;;;;;8.93;6.10;;;18.30;99.30;;;;;;4900538;29;20190;-72
2022/12/19 02:31:24;;;;;;;10.65;5.75;;;18.30;99.50;;;;;;4899409;29;20645;-72
2022/12/19 02:34:00;;;;;;;10.85;5.88;;;18.30;99.70;;;;;;4900456;29;20197;-72
2022/12/19 02:36:34;;;;;;;13.93;6.13;;;18.20;99.80;;;;;;4899925;29;20229;-72
2022/12/19 02:39:06;;;;;;;10.25;6.03;;;18.20;99.90;;;;;;4900047;29;20194;-72
2022/12/19 02:41:42;;;;;;;7.40;6.10;;;18.20;99.90;;;;;;4900286;29;20193;-72
2022/12/19 02:44:12;;;;;;;10.57;6.90;;;18.20;99.90;;;;;;4900201;29;20190;-72
2022/12/19 02:46:41;;;;;;;6.18;5.57;;;18.20;99.90;;;;;;4900341;29;20225;-72
2022/12/19 02:49:08;;;;;;;6.95;5.70;;;18.30;99.70;;;;;;4899785;29;20681;-72
2022/12/19 02:51:35;;;;;;;7.47;5.60;;;18.20;99.60;;;;;;4899983;29;20592;-72
2022/12/19 02:54:01;;;;;;;8.13;6.05;;;18.30;99.80;;;;;;4900252;29;20209;-72
2022/12/19 02:56:38;;;;;;;9.30;6.18;;;18.30;99.80;;;;;;4899915;29;20570;-72
2022/12/19 02:59:34;;;;;;;7.43;6.18;;;18.40;99.90;;;;;;4899939;29;20531;-72
2022/12/19 03:02:10;;;;;;;10.90;6.18;;;18.40;99.90;;;;;;4899120;29;20787;-72
2022/12/19 03:04:45;;;;;;;7.28;5.97;;;18.50;99.90;;;;;;4899720;29;20189;-72
2022/12/19 03:07:25;;;;;;;13.80;6.80;;;18.50;99.80;;;;;;4899783;29;20197;-72
2022/12/19 03:09:59;;;;;;;9.07;5.78;;;18.40;99.60;;;;;;4899749;29;20189;-72
2022/12/19 03:12:31;;;;;;;15.52;5.97;;;18.40;99.50;;;;;;4899639;29;20213;-72
2022/12/19 03:14:59;;;;;;;12.25;5.43;;;18.40;99.40;;;;;;4899562;29;20232;-72
2022/12/19 03:17:28;;;;;;;9.75;6.15;;;18.40;99.50;;;;;;4899549;29;20210;-72
2022/12/19 03:19:56;;;;;;;9.63;6.10;;;18.30;99.30;;;;;;4899240;29;20701;-72
2022/12/19 03:22:23;;;;;;;11.50;5.32;;;18.30;99.30;;;;;;4899475;29;20205;-72
2022/12/19 03:24:50;;;;;;;8.85;6.00;;;18.30;99.30;;;;;;4899381;29;20230;-72
2022/12/19 03:27:24;;;;;;;11.93;6.47;;;18.30;99.70;;;;;;4899391;29;20220;-72
2022/12/19 03:29:55;;;;;;;9.65;5.82;;;18.20;99.70;;;;;;4899352;29;20196;-72
2022/12/19 03:32:24;;;;;;;11.90;6.40;;;18.30;99.80;;;;;;4899285;29;20205;-72
2022/12/19 03:34:57;;;;;;;9.05;6.30;;;18.30;99.90;;;;;;4899003;29;20244;-72
2022/12/19 03:37:28;;;;;;;6.88;5.38;;;18.20;99.90;;;;;;4899305;29;20292;-72
2022/12/19 03:39:58;;;;;;;6.40;5.78;;;18.20;99.90;;;;;;4898957;29;20668;-72
2022/12/19 03:45:23;;;;;;;10.15;6.03;;;18.20;99.90;;;;;;4888755;29;20234;-72
2022/12/19 03:47:54;;;;;;;5.93;5.43;;;18.10;99.90;;;;;;4899095;29;20287;-72
2022/12/19 03:50:25;;;;;;;12.75;6.13;;;;;;;;;;4898719;29;20197;-72
2022/12/19 03:52:55;;;;;;;6.55;5.65;;;;;;;;;;4898925;29;20210;-72
2022/12/19 04:57:43;;;;;;;11.02;5.80;;;18.20;99.90;;;;;;5643360;23;20281;-73
2022/12/19 05:00:11;;;;;;;9.95;5.47;;;18.20;99.90;;;;;;4902204;29;20217;-72
2022/12/19 05:02:38;;;;;;;6.68;5.28;;;18.20;99.90;;;;;;4902276;29;20206;-72
2022/12/19 05:05:06;;;;;;;10.68;5.45;;;18.20;99.90;;;;;;4901985;29;20210;-73
2022/12/19 05:07:32;;;;;;;6.65;5.40;;;18.10;99.90;;;;;;4905346;29;20264;-74
2022/12/19 05:09:59;;;;;;;9.63;5.95;;;18.20;99.90;;;;;;4901945;29;20236;-72
2022/12/19 05:12:28;;;;;;;6.35;5.10;;;18.20;99.90;;;;;;4902382;29;20229;-72
2022/12/19 05:14:56;;;;;;;6.78;5.40;;;18.20;99.90;;;;;;4901690;29;20202;-72
2022/12/19 05:17:22;;;;;;;5.88;5.28;;;18.10;99.90;;;;;;4901669;29;20233;-72
2022/12/19 05:19:49;;;;;;;9.02;4.97;;;18.10;99.90;;;;;;4902504;29;20209;-71
2022/12/19 05:22:16;;;;;;;7.18;5.30;;;18.10;99.90;;;;;;4901678;29;20198;-71
2022/12/19 05:24:42;;;;;;;5.63;4.88;;;18.10;99.90;;;;;;4901659;29;20554;-74
2022/12/19 05:27:09;;;;;;;6.18;5.25;;;18.10;99.90;;;;;;4901495;29;20229;-75
2022/12/19 05:29:36;;;;;;;7.97;4.88;;;18.20;99.90;;;;;;4901578;29;20214;-75
2022/12/19 05:32:04;;;;;;;9.00;4.72;;;18.20;99.90;;;;;;4901541;29;20221;-74
2022/12/19 05:34:31;;;;;;;7.22;5.13;;;18.30;99.90;;;;;;4901559;29;20206;-72
2022/12/19 05:36:58;;;;;;;9.75;5.18;;;18.30;99.90;;;;;;4901360;29;20210;-73
2022/12/19 05:39:24;;;;;;;7.53;5.20;;;18.40;99.90;;;;;;4901435;29;20205;-73
2022/12/19 05:41:51;;;;;;;4.88;4.47;;;18.50;99.90;;;;;;4901071;29;20709;-72
2022/12/19 05:44:18;;;;;;;7.97;5.13;;;18.40;99.90;;;;;;4901322;29;20213;-73
2022/12/19 05:46:44;;;;;;;8.88;5.22;;;18.40;99.90;;;;;;4901192;29;20206;-73
2022/12/19 05:49:13;;;;;;;7.75;5.25;;;18.40;99.90;;;;;;4901207;29;20233;-72
2022/12/19 05:51:39;;;;;;;7.20;5.10;;;18.40;99.90;;;;;;4901147;29;20205;-73
2022/12/19 05:54:06;;;;;;;8.10;5.55;;;18.30;99.90;;;;;;4900756;29;20735;-73
2022/12/19 05:56:33;;;;;;;6.18;5.57;;;18.30;99.90;;;;;;4901078;29;20205;-73
2022/12/19 05:58:59;;;;;;;8.00;5.80;;;18.30;99.90;;;;;;4900955;29;20233;-73
2022/12/19 06:01:27;;;;;;;8.13;5.82;;;18.30;99.90;;;;;;4901067;29;20221;-73
2022/12/19 06:03:55;;;;;;;8.32;5.88;;;;;;;;;;4900948;29;20237;-72
2022/12/19 06:06:25;;;;;;;8.73;5.20;;;;;;;;;;4899915;29;20211;-72
2022/12/19 06:08:54;;;;;;;9.40;5.82;;;18.10;98.10;;;;;;4900801;29;20229;-72
2022/12/19 06:11:21;;;;;;;8.95;6.38;;;18.10;99.10;;;;;;4900825;29;20233;-72
2022/12/19 06:13:48;;;;;;;5.97;5.43;;;18.20;99.30;;;;;;4900370;29;20728;-73
2022/12/19 06:16:16;;;;;;;13.63;7.40;;;18.20;99.30;;;;;;4901333;29;20213;-76
2022/12/19 06:18:44;;;;;;;21.52;9.07;;;18.30;99.30;;;;;;4901324;29;20232;-73
2022/12/19 06:21:14;;;;;;;29.75;11.10;;;18.30;99.50;;;;;;4900879;29;20212;-74
2022/12/19 06:23:42;;;;;;;49.03;14.02;;;18.30;99.40;;;;;;4900617;29;20237;-74
2022/12/19 06:26:11;;;;;;;38.42;12.63;;;18.40;99.60;;;;;;4900585;29;20232;-74
2022/12/19 06:28:38;;;;;;;42.83;11.70;;;18.50;99.40;;;;;;4900139;29;20609;-73
2022/12/19 06:31:06;;;;;;;34.95;11.25;;;18.50;99.40;;;;;;4900502;29;20202;-73
2022/12/19 06:33:34;;;;;;;34.17;12.15;;;18.50;99.30;;;;;;4900618;29;20218;-74
2022/12/19 06:36:02;;;;;;;26.80;12.48;;;18.50;99.30;;;;;;4900515;29;20217;-73
2022/12/19 06:38:29;;;;;;;26.75;10.80;;;18.50;99.00;;;;;;4899977;29;20221;-73
2022/12/19 06:43:42;;;;;;;28.05;12.07;;;18.50;98.50;;;;;;4900430;29;20198;-72
2022/12/19 06:46:09;;;;;;;24.63;12.73;;;18.50;99.90;;;;;;4900218;29;20209;-72
2022/12/19 06:48:36;;;;;;;49.97;14.32;;;18.50;99.30;;;;;;4900069;29;20232;-72
2022/12/19 06:51:03;;;;;;;34.00;13.98;;;18.50;99.20;;;;;;4900136;29;20213;-72
2022/12/19 06:53:30;;;;;;;42.00;14.57;;;18.60;99.90;;;;;;4899982;29;20233;-72
2022/12/19 06:55:59;;;;;;;35.65;12.07;;;18.80;99.90;;;;;;4900011;29;20213;-72
2022/12/19 06:58:26;;;;;;;45.95;13.20;;;18.90;99.90;;;;;;4900364;29;20225;-73
2022/12/19 07:00:54;;;;;;;28.15;12.85;;;19.00;99.90;;;;;;4899562;29;20704;-73
2022/12/19 07:03:25;;;;;;;38.85;13.02;;;19.00;99.90;;;;;;4899889;29;20212;-73
2022/12/19 07:05:52;;;;;;;31.30;12.70;;;19.00;99.90;;;;;;4899586;29;20194;-73
2022/12/19 07:08:19;;;;;;;36.63;12.05;;;19.10;99.90;;;;;;4899706;29;20229;-73
2022/12/19 07:10:46;;;;;;;27.50;11.75;;;19.00;99.90;;;;;;4899680;29;20209;-72
2022/12/19 07:13:14;;;;;;;41.20;14.10;;;19.00;99.90;;;;;;4899627;29;20233;-73
2022/12/19 07:15:41;;;;;;;35.83;13.20;;;18.90;99.90;;;;;;4899390;29;20212;-73
2022/12/19 07:18:09;;;;;;;30.33;12.48;;;18.90;99.90;;;;;;4899503;29;20603;-74
2022/12/19 07:20:38;;;;;;;32.70;13.13;;;19.00;99.90;;;;;;4899528;29;20232;-74
2022/12/19 07:23:06;;;;;;;33.17;11.70;;;18.90;99.90;;;;;;4899505;29;20201;-74
2022/12/19 07:25:33;;;;;;;29.80;12.05;;;18.90;99.90;;;;;;4899476;29;20233;-74
2022/12/19 07:28:00;;;;;;;28.65;11.50;;;18.90;99.90;;;;;;4899565;29;20225;-74
2022/12/19 07:30:28;;;;;;;27.17;11.88;;;19.00;99.90;;;;;;4899326;29;20213;-73
2022/12/19 10:32:04;;;;;;;23.63;7.90;;;18.70;97.40;;;;;;5694672;23;20791;-75
2022/12/19 10:34:35;;;;;;;25.48;7.82;;;18.70;97.20;;;;;;4900238;29;20233;-74
2022/12/19 10:37:12;;;;;;;35.97;8.38;;;18.70;97.50;;;;;;4900402;29;20190;-75
2022/12/19 10:39:51;;;;;;;25.10;7.55;;;18.70;97.60;;;;;;4900019;29;20189;-76
2022/12/19 10:42:26;;;;;;;19.35;7.18;;;18.70;97.70;;;;;;4899871;29;20225;-76
2022/12/19 10:44:56;;;;;;;24.30;7.05;;;18.80;97.60;;;;;;4922603;23;20236;-76
2022/12/19 10:47:25;;;;;;;22.98;7.65;;;18.70;97.50;;;;;;4899947;29;20194;-76
2022/12/19 10:49:51;;;;;;;23.67;6.57;;;18.70;97.60;;;;;;4899589;29;20733;-74
2022/12/19 10:52:47;;;;;;;22.70;8.40;;;18.70;97.50;;;;;;4899165;29;20216;-74
2022/12/19 10:55:42;;;;;;;18.35;6.90;;;18.70;97.20;;;;;;4899878;29;20226;-71
2022/12/19 10:58:17;;;;;;;24.85;7.22;;;18.80;97.50;;;;;;4891215;29;20666;-74
2022/12/19 11:00:59;;;;;;;16.88;6.45;;;18.80;97.40;;;;;;4900232;29;20189;-73
2022/12/19 11:03:27;;;;;;;19.60;7.28;;;18.80;97.30;;;;;;4899869;29;20186;-73
2022/12/19 11:05:56;;;;;;;18.30;6.82;;;18.80;97.30;;;;;;4899449;29;20712;-73
2022/12/19 11:08:25;;;;;;;34.38;7.50;;;18.80;97.30;;;;;;4899515;29;20749;-73
2022/12/19 11:10:55;;;;;;;19.27;7.45;;;18.80;97.40;;;;;;4899827;29;20205;-73
2022/12/19 11:13:24;;;;;;;19.45;7.13;;;18.70;97.40;;;;;;4899743;29;20228;-73
2022/12/19 11:15:53;;;;;;;23.83;7.05;;;18.80;97.30;;;;;;4899640;29;20225;-73
2022/12/19 11:18:20;;;;;;;23.90;6.70;;;18.80;97.40;;;;;;4899485;29;20206;-73
2022/12/19 11:21:01;;;;;;;27.40;7.78;;;18.80;97.50;;;;;;4899441;29;20232;-73
2022/12/19 11:23:29;;;;;;;37.10;9.38;;;18.70;97.50;;;;;;4899356;29;20194;-73
2022/12/19 11:25:58;;;;;;;94.53;25.17;;;18.70;97.80;;;;;;4899020;29;20225;-73
2022/12/19 11:28:29;;;;;;;201.00;58.58;;;18.80;98.20;;;;;;4899267;29;20201;-73
2022/12/19 11:31:01;;;;;;;142.50;37.75;;;18.80;99.90;;;;;;4899152;29;20193;-73
2022/12/19 11:33:28;;;;;;;121.53;36.22;;;18.80;99.20;;;;;;4898750;29;20708;-73
2022/12/19 11:35:57;;;;;;;163.68;43.50;;;18.80;99.50;;;;;;4898960;29;20236;-73
2022/12/19 11:38:35;;;;;;;165.27;46.75;;;18.80;99.90;;;;;;4899055;29;20297;-73
2022/12/19 11:41:05;;;;;;;161.35;45.72;;;;;;;;;;4898732;29;20697;-73
2022/12/19 11:43:37;;;;;;;162.07;46.13;;;18.80;99.90;;;;;;4898850;29;20206;-72
2022/12/19 11:46:11;;;;;;;155.15;45.63;;;18.80;99.80;;;;;;4898654;29;20249;-72
2022/12/19 11:48:44;;;;;;;165.27;44.17;;;18.80;99.90;;;;;;4898828;29;20231;-72
2022/12/19 11:51:18;;;;;;;155.90;42.65;;;18.80;99.90;;;;;;4898396;29;20558;-72
2022/12/19 11:53:56;;;;;;;136.00;42.53;;;18.80;99.90;;;;;;4898690;29;20204;-73
2022/12/19 11:56:26;;;;;;;135.32;39.58;;;18.80;99.90;;;;;;4899190;29;20225;-72
2022/12/19 11:58:57;;;;;;;135.57;39.45;;;18.80;99.90;;;;;;4899202;29;20197;-72
2022/12/19 12:01:55;;;;;;;126.65;37.72;;;18.80;99.90;;;;;;4898930;29;20190;-72
2022/12/19 12:04:44;;;;;;;116.50;36.05;;;18.70;99.90;;;;;;4894541;29;20689;-72
2022/12/19 12:07:12;;;;;;;125.15;36.33;;;18.60;96.70;;;;;;4898586;29;20649;-72
2022/12/19 12:09:45;;;;;;;119.28;35.90;;;18.50;96.00;;;;;;4898801;29;20295;-72
2022/12/19 12:12:23;;;;;;;131.45;34.83;;;18.50;97.70;;;;;;4898793;29;20221;-72
2022/12/19 12:15:12;;;;;;;120.28;36.58;;;18.40;95.50;;;;;;4898352;29;20585;-72
2022/12/19 12:17:51;;;;;;;118.18;33.67;;;18.40;95.70;;;;;;4898728;29;20194;-72
2022/12/19 12:20:30;;;;;;;116.25;32.78;;;18.40;95.80;;;;;;4898672;29;20186;-72
2022/12/19 12:23:15;;;;;;;104.38;31.95;;;18.40;95.90;;;;;;4898673;29;20190;-71
2022/12/19 12:25:53;;;;;;;89.18;30.63;;;18.30;96.00;;;;;;4898562;29;20233;-72
2022/12/19 12:28:57;;;;;;;105.38;30.90;;;18.40;96.10;;;;;;4898327;29;20717;-72
2022/12/19 12:31:45;;;;;;;90.18;29.20;;;18.30;96.20;;;;;;4878038;29;20213;-71
2022/12/19 12:34:40;;;;;;;96.15;29.75;;;18.30;96.30;;;;;;4898134;29;20210;-71
2022/12/19 12:37:19;;;;;;;91.50;28.23;;;18.30;96.40;;;;;;4898272;29;20194;-71
2022/12/19 12:39:57;;;;;;;100.38;27.80;;;18.20;96.30;;;;;;4898256;29;20189;-71
2022/12/19 12:42:40;;;;;;;79.00;26.67;;;18.20;96.30;;;;;;4898595;29;20687;-71
2022/12/19 12:45:19;;;;;;;76.38;26.70;;;18.20;96.40;;;;;;4898482;29;20237;-71
2022/12/19 12:47:48;;;;;;;83.00;26.95;;;18.20;96.50;;;;;;4898109;29;20239;-71
2022/12/19 12:50:17;;;;;;;76.10;26.45;;;18.20;96.60;;;;;;4898412;29;20209;-71
2022/12/19 12:52:47;;;;;;;77.32;24.85;;;18.20;96.60;;;;;;4898408;29;20213;-71
2022/12/19 12:55:23;;;;;;;70.20;25.08;;;18.30;96.40;;;;;;4898273;29;20233;-71
2022/12/19 12:57:51;;;;;;;93.00;29.10;;;18.30;96.40;;;;;;4899209;29;20190;-71
2022/12/19 13:00:25;;;;;;;218.70;83.50;;;18.30;96.50;;;;;;4898302;29;20209;-71
2022/12/19 13:03:02;;;;;;;164.93;63.60;;;18.40;96.70;;;;;;4898402;29;20196;-71
2022/12/19 13:05:37;;;;;;;188.98;75.30;;;18.50;96.70;;;;;;4897976;29;20731;-70
2022/12/19 13:08:28;;;;;;;190.27;76.88;;;18.60;97.30;;;;;;4898417;29;20198;-71
2022/12/19 13:10:59;;;;;;;192.27;75.70;;;18.60;97.20;;;;;;4898266;29;20561;-71
2022/12/19 13:13:52;;;;;;;184.57;74.68;;;18.70;97.60;;;;;;4898147;29;20212;-71
2022/12/19 13:16:48;;;;;;;184.38;74.22;;;18.70;97.40;;;;;;4901847;29;20229;-71
2022/12/19 13:19:17;;;;;;;176.45;70.70;;;18.80;97.70;;;;;;4901458;29;20205;-71
2022/12/19 13:22:18;;;;;;;170.35;68.68;;;18.80;98.30;;;;;;4901794;29;20231;-74
2022/12/19 13:24:46;;;;;;;169.98;67.28;;;18.80;98.00;;;;;;4901653;29;20194;-72
2022/12/19 13:27:38;;;;;;;149.15;63.28;;;18.80;98.40;;;;;;4901676;29;20216;-71
2022/12/19 13:30:18;;;;;;;154.38;64.88;;;18.70;98.40;;;;;;4901626;29;20204;-70
2022/12/19 13:33:08;;;;;;;158.98;63.67;;;18.70;98.10;;;;;;4901634;29;20204;-73
2022/12/19 13:35:36;;;;;;;156.93;61.22;;;18.60;98.00;;;;;;4901035;29;20261;-71
2022/12/19 13:38:16;;;;;;;151.68;59.20;;;18.60;98.50;;;;;;4901153;29;20673;-71
2022/12/19 13:40:57;;;;;;;152.68;58.28;;;18.70;99.70;;;;;;4901303;29;20557;-71
2022/12/19 13:43:48;;;;;;;146.80;56.28;;;18.60;98.50;;;;;;4901992;29;20680;-70
2022/12/19 13:46:35;;;;;;;135.65;54.13;;;18.60;98.40;;;;;;4901083;29;20281;-70
2022/12/19 13:49:05;;;;;;;134.02;52.42;;;18.70;98.40;;;;;;4901501;29;20305;-71
2022/12/19 13:51:43;;;;;;;118.95;51.55;;;18.50;98.20;;;;;;4901606;29;20194;-71
2022/12/19 13:54:19;;;;;;;137.38;51.13;;;18.50;98.20;;;;;;4901643;29;20210;-71
2022/12/19 13:56:46;;;;;;;127.55;49.67;;;18.40;98.40;;;;;;4901789;29;20229;-73
2022/12/19 13:59:13;;;;;;;127.47;47.90;;;18.50;98.40;;;;;;4901109;29;20209;-70
2022/12/19 14:01:41;;;;;;;122.65;46.72;;;18.40;99.20;;;;;;4900740;29;20682;-70
2022/12/19 14:04:11;;;;;;;118.75;47.63;;;18.30;97.40;;;;;;4900669;29;20696;-71
2022/12/19 14:06:40;;;;;;;107.78;45.53;;;18.30;98.30;;;;;;4901655;29;20234;-71
2022/12/19 14:09:22;;;;;;;108.07;45.22;;;18.90;98.00;;;;;;4904670;29;20210;-70
2022/12/19 14:11:50;;;;;;;105.95;43.45;;;18.30;98.00;;;;;;4905207;29;20193;-70
2022/12/19 14:17:08;;;;;;;93.53;41.08;;;18.40;98.90;;;;;;4904741;29;20193;-68
2022/12/19 14:19:41;;;;;;;87.78;39.10;;;18.40;98.80;;;;;;4905820;29;20636;-70
2022/12/19 14:22:12;;;;;;;87.68;37.20;;;18.40;99.30;;;;;;4906345;29;20234;-70
2022/12/19 14:24:40;;;;;;;92.85;36.53;;;18.40;99.30;;;;;;4905400;29;20205;-70
2022/12/19 14:27:12;;;;;;;81.43;35.47;;;18.40;99.30;;;;;;4904612;29;20519;-70
2022/12/19 14:29:45;;;;;;;72.85;32.95;;;18.40;99.20;;;;;;4906369;29;20673;-70
2022/12/19 14:32:14;;;;;;;75.90;31.70;;;18.40;98.80;;;;;;4905826;29;20197;-70
2022/12/19 14:34:42;;;;;;;73.45;30.98;;;18.40;98.80;;;;;;4905504;29;20232;-70
2022/12/19 14:37:28;;;;;;;75.78;31.50;;;18.60;99.40;;;;;;4906890;29;20217;-70
2022/12/19 14:40:00;;;;;;;71.38;30.73;;;18.40;99.10;;;;;;4906168;29;20201;-70
2022/12/19 14:45:33;;;;;;;62.42;29.10;;;18.40;98.80;;;;;;4905844;29;20224;-70
2022/12/19 14:48:03;;;;;;;73.07;29.05;;;18.40;97.50;;;;;;4906051;29;20246;-70
2022/12/19 14:50:33;;;;;;;65.07;28.50;;;18.50;97.50;;;;;;4905840;29;20205;-70
2022/12/19 14:53:16;;;;;;;62.30;28.02;;;18.40;97.60;;;;;;4906404;29;20220;-70
2022/12/19 14:55:45;;;;;;;70.60;30.55;;;18.40;98.60;;;;;;4906371;29;20264;-72
2022/12/19 14:58:18;;;;;;;63.03;26.90;;;18.40;98.50;;;;;;4906064;29;20202;-70
2022/12/19 15:00:48;;;;;;;69.72;28.23;;;18.40;98.20;;;;;;4906435;29;20193;-71
2022/12/19 15:03:24;;;;;;;63.08;26.48;;;18.30;98.20;;;;;;4903066;29;20611;-72
2022/12/19 15:05:51;;;;;;;67.80;27.33;;;18.30;95.60;;;;;;4899955;29;20217;-71
2022/12/19 15:08:28;;;;;;;69.05;28.52;;;18.30;94.80;;;;;;4899550;29;20202;-72
2022/12/19 15:13:17;;;;;;;68.63;27.80;;;18.30;95.30;;;;;;4899842;29;20253;-72
2022/12/19 15:13:51;;;;;;;62.33;26.35;;;18.30;95.50;;;;;;4899483;29;20209;-72
2022/12/19 15:16:25;;;;;;;66.43;26.92;;;18.30;95.40;;;;;;4899574;29;20574;-72
2022/12/19 15:18:56;;;;;;;60.90;25.75;;;18.30;95.30;;;;;;4903001;29;20186;-71
2022/12/19 15:21:23;;;;;;;64.63;26.40;;;18.30;95.40;;;;;;4903522;29;20190;-71
2022/12/19 15:23:50;;;;;;;59.15;25.27;;;18.30;95.50;;;;;;4903657;29;20218;-72
2022/12/19 15:26:19;;;;;;;62.22;26.10;;;18.40;95.80;;;;;;4903437;29;20716;-71
2022/12/19 15:28:48;;;;;;;61.92;24.25;;;18.40;95.80;;;;;;4903776;29;20220;-71
2022/12/19 15:31:34;;;;;;;57.53;24.73;;;18.30;95.80;;;;;;4903847;29;20206;-71
2022/12/19 15:34:12;;;;;;;62.83;24.52;;;18.30;95.80;;;;;;4902343;29;20202;-74
2022/12/19 15:36:39;;;;;;;55.35;24.52;;;18.30;95.90;;;;;;4903007;29;20228;-71
2022/12/19 15:39:06;;;;;;;55.13;22.95;;;18.30;96.00;;;;;;4902974;29;20205;-70
2022/12/19 15:41:34;;;;;;;59.45;23.83;;;18.50;96.20;;;;;;4901974;29;20212;-72
2022/12/19 15:44:06;;;;;;;50.85;22.83;;;18.30;96.10;;;;;;4902460;29;20667;-72
2022/12/19 15:46:33;;;;;;;53.17;22.60;;;18.40;96.20;;;;;;4901944;29;20229;-71
2022/12/19 15:48:59;;;;;;;52.42;21.45;;;18.40;96.40;;;;;;4902329;29;20209;-73
2022/12/19 15:51:28;;;;;;;46.78;22.00;;;18.40;96.50;;;;;;4901089;29;20681;-74
2022/12/19 15:53:55;;;;;;;56.67;22.30;;;18.40;96.60;;;;;;4901561;29;20210;-74
2022/12/19 15:56:27;;;;;;;46.38;21.83;;;18.30;96.50;;;;;;4901707;29;20601;-74
2022/12/19 15:58:55;;;;;;;52.40;21.70;;;18.30;96.50;;;;;;4901906;29;20280;-72
2022/12/19 16:01:23;;;;;;;49.63;20.42;;;18.30;96.60;;;;;;4902178;29;20213;-72
2022/12/19 16:03:50;;;;;;;46.33;20.98;;;18.30;96.70;;;;;;4901759;29;20573;-73
2022/12/19 16:06:17;;;;;;;46.90;22.35;;;18.30;96.80;;;;;;4902238;29;20315;-71
2022/12/19 16:08:45;;;;;;;48.28;20.63;;;18.30;96.80;;;;;;4899886;29;20205;-71
2022/12/19 16:11:18;;;;;;;46.80;20.45;;;18.30;96.80;;;;;;4898775;29;20216;-71
2022/12/19 16:13:49;;;;;;;51.25;21.25;;;18.30;96.80;;;;;;4898786;29;20213;-71
2022/12/19 16:16:16;;;;;;;48.13;20.63;;;18.30;97.20;;;;;;4898646;29;20234;-72
2022/12/19 16:18:44;;;;;;;40.50;18.60;;;18.30;96.80;;;;;;4898634;29;20209;-72
2022/12/19 16:21:18;;;;;;;39.58;19.30;;;18.30;96.80;;;;;;4903156;29;20257;-71
2022/12/19 16:23:48;;;;;;;35.92;18.35;;;18.20;96.50;;;;;;4904754;29;20194;-70
2022/12/19 16:26:30;;;;;;;37.88;17.98;;;18.20;96.50;;;;;;4903473;29;20232;-71
2022/12/19 16:28:57;;;;;;;40.45;19.13;;;18.20;96.50;;;;;;4904057;29;20201;-71
2022/12/19 16:31:26;;;;;;;41.22;18.70;;;18.20;96.40;;;;;;4905401;29;20601;-72
2022/12/19 16:33:53;;;;;;;43.15;19.88;;;18.20;96.40;;;;;;4905279;29;20220;-72
2022/12/19 16:36:21;;;;;;;38.72;17.35;;;18.20;96.40;;;;;;4905362;29;20312;-71
2022/12/19 16:38:51;;;;;;;43.42;18.40;;;18.20;96.30;;;;;;4905328;29;20205;-72
2022/12/19 16:41:22;;;;;;;40.80;18.20;;;18.20;96.10;;;;;;4904651;29;20210;-71
2022/12/19 16:43:50;;;;;;;38.50;17.20;;;18.20;96.10;;;;;;4904987;29;20250;-71
2022/12/19 16:46:19;;;;;;;38.22;17.25;;;18.20;95.90;;;;;;4902130;29;20252;-70
2022/12/19 16:48:47;;;;;;;38.53;17.55;;;18.20;96.00;;;;;;4902102;29;20206;-69
2022/12/19 16:51:19;;;;;;;32.08;16.95;;;18.10;95.90;;;;;;4906840;29;20246;-69
2022/12/19 16:53:47;;;;;;;32.42;17.40;;;18.10;95.90;;;;;;4905648;29;20209;-67
2022/12/19 16:56:32;;;;;;;33.50;16.58;;;18.00;95.70;;;;;;4905426;29;20233;-67
2022/12/19 16:59:01;;;;;;;29.98;16.33;;;18.10;95.80;;;;;;4907072;29;20190;-66
2022/12/19 17:01:29;;;;;;;36.25;17.45;;;18.00;95.60;;;;;;4908441;29;20210;-66
2022/12/19 17:03:57;;;;;;;36.65;15.85;;;17.90;95.40;;;;;;4908362;29;20205;-66
2022/12/19 17:06:23;;;;;;;36.60;16.08;;;17.90;95.20;;;;;;4907480;29;20226;-71
2022/12/19 17:08:50;;;;;;;29.08;15.50;;;17.90;95.40;;;;;;4902028;29;20206;-73
2022/12/19 17:11:20;;;;;;;30.00;15.32;;;17.90;95.40;;;;;;4902129;29;20206;-72